createdAt,value
2022-11-16T00:03:55.432Z,10.87
2022-11-16T00:09:20.255Z,13.85
2022-11-16T00:14:25.844Z,13.62
2022-11-16T00:19:29.442Z,11.53
2022-11-16T00:24:32.353Z,10.35
2022-11-16T00:29:35.250Z,11.07
2022-11-16T00:34:39.898Z,14.03
2022-11-16T00:39:42.800Z,14.10
2022-11-16T00:44:45.806Z,11.95
2022-11-16T00:49:48.708Z,10.67
2022-11-16T00:54:51.612Z,11.21
2022-11-16T00:59:54.515Z,14.09
2022-11-16T01:04:57.418Z,13.88
2022-11-16T01:10:00.321Z,11.76
2022-11-16T01:15:04.330Z,10.51
2022-11-16T01:20:12.067Z,11.02
2022-11-16T01:25:15.679Z,13.93
2022-11-16T01:30:18.719Z,13.86
2022-11-16T01:35:21.805Z,11.73
2022-11-16T01:40:28.100Z,10.48
2022-11-16T01:45:38.979Z,11.14
2022-11-16T01:50:43.551Z,14.08
2022-11-16T01:55:48.355Z,13.79
2022-11-16T02:00:51.420Z,11.68
2022-11-16T02:06:18.035Z,10.44
2022-11-16T02:11:51.976Z,11.20
2022-11-16T02:17:18.990Z,14.14
2022-11-16T02:22:50.639Z,12.94
2022-11-16T02:28:20.949Z,10.97
2022-11-16T02:33:31.237Z,9.89
2022-11-16T02:38:38.985Z,10.68
2022-11-16T02:43:45.740Z,13.73
2022-11-16T02:48:51.511Z,13.35
2022-11-16T02:54:14.974Z,11.18
2022-11-16T02:59:17.992Z,9.89
2022-11-16T03:04:28.880Z,10.64
2022-11-16T03:09:35.981Z,13.26
2022-11-16T03:14:47.700Z,11.69
2022-11-16T03:20:07.592Z,10.21
2022-11-16T03:25:13.257Z,9.33
2022-11-16T03:30:25.505Z,8.71
2022-11-16T03:35:34.520Z,9.95
2022-11-16T03:40:39.381Z,13.12
2022-11-16T03:45:43.225Z,11.84
2022-11-16T03:50:46.217Z,10.20
2022-11-16T03:55:50.041Z,9.27
2022-11-16T04:00:53.488Z,8.62
2022-11-16T04:06:15.010Z,9.51
2022-11-16T04:11:39.726Z,12.82
2022-11-16T04:17:01.166Z,11.60
2022-11-16T04:22:30.814Z,9.83
2022-11-16T04:27:52.232Z,8.81
2022-11-16T04:33:13.670Z,8.34
2022-11-16T04:38:16.343Z,11.48
2022-11-16T04:43:19.067Z,12.44
2022-11-16T04:48:22.429Z,10.36
2022-11-16T04:53:27.242Z,9.13
2022-11-16T04:58:30.035Z,8.36
2022-11-16T05:03:32.716Z,7.83
2022-11-16T05:08:35.761Z,8.84
2022-11-16T05:13:38.747Z,12.14
2022-11-16T05:18:41.442Z,11.55
2022-11-16T05:24:02.731Z,9.68
2022-11-16T05:29:05.478Z,8.57
2022-11-16T05:34:09.720Z,7.88
2022-11-16T05:39:12.583Z,8.80
2022-11-16T05:44:16.571Z,11.94
2022-11-16T05:49:19.736Z,11.68
2022-11-16T05:54:25.953Z,9.61
2022-11-16T05:59:30.085Z,8.43
2022-11-16T06:04:33.922Z,7.74
2022-11-16T06:09:36.672Z,9.89
2022-11-16T06:14:39.393Z,11.47
2022-11-16T06:19:42.172Z,9.53
2022-11-16T06:24:44.895Z,8.24
2022-11-16T06:29:47.619Z,9.05
2022-11-16T06:34:50.393Z,12.08
2022-11-16T06:39:53.109Z,11.00
2022-11-16T06:44:55.834Z,9.03
2022-11-16T06:49:58.603Z,7.87
2022-11-16T06:55:01.306Z,7.15
2022-11-16T07:00:05.205Z,8.25
2022-11-16T07:05:08.337Z,11.83
2022-11-16T07:10:11.421Z,10.93
2022-11-16T07:15:14.168Z,9.03
2022-11-16T07:20:17.043Z,7.99
2022-11-16T07:25:19.706Z,7.34
2022-11-16T07:30:22.536Z,8.37
2022-11-16T07:35:25.318Z,11.85
2022-11-16T07:40:30.061Z,11.91
2022-11-16T07:45:34.986Z,9.67
2022-11-16T07:50:38.036Z,8.36
2022-11-16T07:55:40.849Z,7.54
2022-11-16T08:00:43.847Z,7.86
2022-11-16T08:05:48.691Z,11.62
2022-11-16T08:10:51.600Z,11.04
2022-11-16T08:15:54.382Z,9.15
2022-11-16T08:21:01.851Z,8.10
2022-11-16T08:26:07.789Z,8.06
2022-11-16T08:31:13.557Z,11.34
2022-11-16T08:36:17.608Z,10.39
2022-11-16T08:41:22.151Z,8.67
2022-11-16T08:46:24.977Z,7.68
2022-11-16T08:51:27.719Z,7.06
2022-11-16T08:56:31.604Z,9.32
2022-11-16T09:01:34.474Z,11.15
2022-11-16T09:06:37.376Z,9.12
2022-11-16T09:11:40.198Z,7.87
2022-11-16T09:16:42.996Z,7.15
2022-11-16T09:21:45.925Z,9.63
2022-11-16T09:26:48.659Z,11.19
2022-11-16T09:31:51.391Z,9.07
2022-11-16T09:36:54.682Z,7.79
2022-11-16T09:42:21.539Z,7.02
2022-11-16T09:47:36.691Z,7.85
2022-11-16T09:52:43.287Z,10.79
2022-11-16T09:57:48.100Z,9.09
2022-11-16T10:03:00.297Z,7.79
2022-11-16T10:08:13.178Z,7.10
2022-11-16T10:13:35.733Z,8.33
2022-11-16T10:19:11.173Z,10.65
2022-11-16T10:24:33.320Z,8.59
2022-11-16T10:29:54.047Z,7.40
2022-11-16T10:35:05.524Z,6.71
2022-11-16T10:40:18.870Z,6.43
2022-11-16T10:45:42.930Z,9.86
2022-11-16T10:50:47.910Z,11.05
2022-11-16T10:56:09.553Z,8.92
2022-11-16T11:01:12.343Z,7.68
2022-11-16T11:06:15.196Z,7.50
2022-11-16T11:11:42.302Z,10.71
2022-11-16T11:16:45.190Z,9.32
2022-11-16T11:21:48.869Z,7.86
2022-11-16T11:26:55.245Z,7.07
2022-11-16T11:32:04.359Z,6.48
2022-11-16T11:37:17.260Z,8.20
2022-11-16T11:42:23.354Z,10.27
2022-11-16T11:47:56.810Z,8.32
2022-11-16T11:53:20.129Z,7.09
2022-11-16T11:58:29.215Z,6.35
2022-11-16T12:03:45.948Z,5.87
2022-11-16T12:08:51.388Z,7.64
2022-11-16T12:14:36.031Z,10.46
2022-11-16T12:19:59.548Z,8.54
2022-11-16T12:25:37.524Z,7.18
2022-11-16T12:31:18.569Z,6.33
2022-11-16T12:36:33.421Z,5.77
2022-11-16T12:41:43.863Z,5.44
2022-11-16T12:46:46.758Z,8.29
2022-11-16T12:52:05.454Z,9.92
2022-11-16T12:57:19.283Z,7.90
2022-11-16T13:02:52.825Z,6.72
2022-11-16T13:08:04.259Z,5.92
2022-11-16T13:18:42.914Z,10.14
2022-11-16T13:24:08.714Z,8.29
2022-11-16T13:29:42.145Z,6.92
2022-11-16T13:34:46.081Z,6.12
2022-11-16T13:39:57.863Z,5.61
2022-11-16T13:45:20.114Z,5.25
2022-11-16T13:50:34.510Z,7.66
2022-11-16T13:55:44.623Z,9.64
2022-11-16T14:01:01.782Z,7.77
2022-11-16T14:06:24.381Z,6.59
2022-11-16T14:11:27.204Z,5.86
2022-11-16T14:16:30.123Z,6.26
2022-11-16T14:21:53.320Z,9.86
2022-11-16T14:27:19.919Z,9.28
2022-11-16T14:32:27.283Z,7.29
2022-11-16T14:37:34.749Z,6.26
2022-11-16T14:43:14.822Z,5.58
2022-11-16T14:48:19.850Z,5.07
2022-11-16T14:53:23.095Z,7.20
2022-11-16T14:58:25.881Z,9.63
2022-11-16T15:03:33.892Z,7.82
2022-11-16T15:08:47.590Z,6.52
2022-11-16T15:13:50.947Z,5.76
2022-11-16T15:19:01.821Z,5.33
2022-11-16T15:29:27.632Z,7.13
2022-11-16T15:34:31.276Z,9.34
2022-11-16T15:39:36.116Z,7.50
2022-11-16T15:44:39.621Z,6.33
2022-11-16T15:49:44.179Z,5.59
2022-11-16T15:55:03.798Z,5.09
2022-11-16T16:00:22.521Z,4.80
2022-11-16T16:05:41.100Z,7.87
2022-11-16T16:10:43.977Z,9.36
2022-11-16T16:15:46.717Z,7.42
2022-11-16T16:20:49.462Z,6.34
2022-11-16T16:25:52.268Z,5.75
2022-11-16T16:30:55.216Z,5.36
2022-11-16T16:35:57.904Z,5.03
2022-11-16T16:41:02.829Z,4.79
2022-11-16T16:46:06.263Z,6.33
2022-11-16T16:51:11.984Z,9.99
2022-11-16T16:56:16.805Z,8.73
2022-11-16T17:01:19.681Z,7.05
2022-11-16T17:06:23.534Z,6.15
2022-11-16T17:11:26.223Z,5.57
2022-11-16T17:16:28.913Z,5.16
2022-11-16T17:21:32.240Z,4.84
2022-11-16T17:26:35.562Z,6.33
2022-11-16T17:31:43.580Z,10.01
2022-11-16T17:36:46.379Z,9.02
2022-11-16T17:41:50.211Z,7.22
2022-11-16T17:46:52.965Z,6.24
2022-11-16T17:51:55.705Z,5.57
2022-11-16T17:56:58.506Z,5.08
2022-11-16T18:02:01.278Z,4.72
2022-11-16T18:07:04.032Z,4.46
2022-11-16T18:12:06.909Z,6.00
2022-11-16T18:17:09.637Z,9.49
2022-11-16T18:22:12.411Z,8.37
2022-11-16T18:27:15.621Z,6.75
2022-11-16T18:32:18.319Z,5.87
2022-11-16T18:37:21.014Z,5.31
2022-11-16T18:42:23.699Z,4.88
2022-11-16T18:47:26.416Z,4.66
2022-11-16T18:52:29.219Z,7.53
2022-11-16T18:57:32.231Z,9.21
2022-11-16T19:02:35.624Z,7.30
2022-11-16T19:07:38.364Z,6.20
2022-11-16T19:12:41.242Z,5.56
2022-11-16T19:18:06.709Z,5.05
2022-11-16T19:23:06.683Z,4.69
2022-11-16T19:28:09.498Z,4.45
2022-11-16T19:33:12.294Z,5.89
2022-11-16T19:38:15.012Z,9.50
2022-11-16T19:43:17.764Z,8.37
2022-11-16T19:48:20.444Z,6.75
2022-11-16T19:53:23.138Z,5.91
2022-11-16T19:58:26.012Z,5.38
2022-11-16T20:03:30.332Z,5.01
2022-11-16T20:08:33.046Z,4.68
2022-11-16T20:13:36.186Z,4.40
2022-11-16T20:18:41.312Z,5.35
2022-11-16T20:23:45.657Z,9.14
2022-11-16T20:28:52.653Z,8.86
2022-11-16T20:33:57.630Z,7.07
2022-11-16T20:39:01.210Z,6.14
2022-11-16T20:44:04.125Z,5.53
2022-11-16T20:49:06.813Z,5.03
2022-11-16T20:54:09.624Z,4.68
2022-11-16T20:59:12.424Z,4.42
2022-11-16T21:04:15.535Z,6.37
2022-11-16T21:09:22.869Z,9.19
2022-11-16T21:14:25.894Z,7.57
2022-11-16T21:19:29.365Z,6.27
2022-11-16T21:24:32.425Z,5.56
2022-11-16T21:29:35.279Z,5.06
2022-11-16T21:34:40.243Z,4.71
2022-11-16T21:39:43.233Z,4.42
2022-11-16T21:44:45.929Z,4.19
2022-11-16T21:50:16.772Z,4.03
2022-11-16T21:55:12.119Z,5.77
2022-11-16T22:00:15.509Z,8.98
2022-11-16T22:05:36.766Z,7.50
2022-11-16T22:10:39.964Z,6.04
2022-11-16T22:15:42.813Z,5.34
2022-11-16T22:20:49.577Z,4.86
2022-11-16T22:25:52.792Z,4.49
2022-11-16T22:31:10.241Z,4.23
2022-11-16T22:36:13.860Z,6.01
2022-11-16T22:41:16.764Z,9.21
2022-11-16T22:46:19.773Z,7.66
2022-11-16T22:51:24.322Z,6.21
2022-11-16T22:56:28.956Z,5.42
2022-11-16T23:01:32.949Z,4.87
2022-11-16T23:06:36.100Z,4.43
2022-11-16T23:11:57.842Z,4.12
2022-11-16T23:17:01.909Z,4.75
2022-11-16T23:22:24.436Z,8.50
2022-11-16T23:27:41.074Z,8.22
2022-11-16T23:32:43.968Z,6.44
2022-11-16T23:38:07.246Z,5.54
2022-11-16T23:43:29.920Z,4.90
2022-11-16T23:48:32.817Z,4.40
2022-11-16T23:53:35.910Z,4.07
2022-11-16T23:58:39.240Z,3.85
